sensor_id;sensor_type;location;lat;lon;timestamp;temperature;humidity
19088;DHT22;9676;50.916;13.352;2023-05-07T00:01:26;15.10;53.60
19088;DHT22;9676;50.916;13.352;2023-05-07T00:04:16;15.10;53.50
19088;DHT22;9676;50.916;13.352;2023-05-07T00:07:05;15.10;53.60
19088;DHT22;9676;50.916;13.352;2023-05-07T00:09:56;15.10;53.50
19088;DHT22;9676;50.916;13.352;2023-05-07T00:12:45;15.10;53.60
19088;DHT22;9676;50.916;13.352;2023-05-07T00:15:35;15.00;53.60
19088;DHT22;9676;50.916;13.352;2023-05-07T00:18:24;15.00;53.60
19088;DHT22;9676;50.916;13.352;2023-05-07T00:21:14;15.00;53.40
19088;DHT22;9676;50.916;13.352;2023-05-07T00:24:03;15.00;53.60
19088;DHT22;9676;50.916;13.352;2023-05-07T00:26:54;14.90;53.70
19088;DHT22;9676;50.916;13.352;2023-05-07T00:29:45;14.90;53.70
19088;DHT22;9676;50.916;13.352;2023-05-07T00:32:35;14.90;53.70
19088;DHT22;9676;50.916;13.352;2023-05-07T00:35:24;14.90;53.80
19088;DHT22;9676;50.916;13.352;2023-05-07T00:38:14;14.90;53.80
19088;DHT22;9676;50.916;13.352;2023-05-07T00:41:03;14.90;53.70
19088;DHT22;9676;50.916;13.352;2023-05-07T00:43:54;14.80;53.60
19088;DHT22;9676;50.916;13.352;2023-05-07T00:46:44;14.80;53.70
19088;DHT22;9676;50.916;13.352;2023-05-07T00:49:38;14.70;53.80
19088;DHT22;9676;50.916;13.352;2023-05-07T00:52:29;14.60;54.00
19088;DHT22;9676;50.916;13.352;2023-05-07T00:55:19;14.60;53.70
19088;DHT22;9676;50.916;13.352;2023-05-07T00:58:08;14.50;53.60
19088;DHT22;9676;50.916;13.352;2023-05-07T01:00:59;14.40;53.60
19088;DHT22;9676;50.916;13.352;2023-05-07T01:03:49;14.30;53.80
19088;DHT22;9676;50.916;13.352;2023-05-07T01:06:39;14.30;54.00
19088;DHT22;9676;50.916;13.352;2023-05-07T01:09:29;14.20;53.90
19088;DHT22;9676;50.916;13.352;2023-05-07T01:12:18;14.20;54.00
19088;DHT22;9676;50.916;13.352;2023-05-07T01:15:09;14.10;54.20
19088;DHT22;9676;50.916;13.352;2023-05-07T01:18:00;14.10;54.20
19088;DHT22;9676;50.916;13.352;2023-05-07T01:20:54;14.10;54.30
19088;DHT22;9676;50.916;13.352;2023-05-07T01:23:47;14.00;54.30
19088;DHT22;9676;50.916;13.352;2023-05-07T01:26:37;14.00;54.40
19088;DHT22;9676;50.916;13.352;2023-05-07T01:29:27;14.00;54.50
19088;DHT22;9676;50.916;13.352;2023-05-07T01:32:19;13.90;54.60
19088;DHT22;9676;50.916;13.352;2023-05-07T01:35:15;13.90;54.80
19088;DHT22;9676;50.916;13.352;2023-05-07T01:38:08;14.00;55.40
19088;DHT22;9676;50.916;13.352;2023-05-07T01:40:59;13.90;54.50
19088;DHT22;9676;50.916;13.352;2023-05-07T01:43:51;13.90;54.70
19088;DHT22;9676;50.916;13.352;2023-05-07T01:46:41;13.90;54.90
19088;DHT22;9676;50.916;13.352;2023-05-07T01:49:30;13.90;54.90
19088;DHT22;9676;50.916;13.352;2023-05-07T01:52:20;13.90;54.70
19088;DHT22;9676;50.916;13.352;2023-05-07T01:55:09;13.80;54.70
19088;DHT22;9676;50.916;13.352;2023-05-07T01:58:00;13.80;54.90
19088;DHT22;9676;50.916;13.352;2023-05-07T02:00:49;13.80;55.00
19088;DHT22;9676;50.916;13.352;2023-05-07T02:03:39;13.70;54.60
19088;DHT22;9676;50.916;13.352;2023-05-07T02:06:36;13.70;55.00
19088;DHT22;9676;50.916;13.352;2023-05-07T02:09:28;13.60;55.30
19088;DHT22;9676;50.916;13.352;2023-05-07T02:12:18;13.60;55.40
19088;DHT22;9676;50.916;13.352;2023-05-07T02:15:10;13.60;55.70
19088;DHT22;9676;50.916;13.352;2023-05-07T02:18:01;13.60;55.50
19088;DHT22;9676;50.916;13.352;2023-05-07T02:20:52;13.60;55.60
19088;DHT22;9676;50.916;13.352;2023-05-07T02:23:41;13.50;55.60
19088;DHT22;9676;50.916;13.352;2023-05-07T02:26:31;13.50;55.60
19088;DHT22;9676;50.916;13.352;2023-05-07T02:29:20;13.50;56.00
19088;DHT22;9676;50.916;13.352;2023-05-07T02:32:12;13.50;55.70
19088;DHT22;9676;50.916;13.352;2023-05-07T02:35:02;13.50;55.60
19088;DHT22;9676;50.916;13.352;2023-05-07T02:37:51;13.40;55.40
19088;DHT22;9676;50.916;13.352;2023-05-07T02:40:42;13.40;56.00
19088;DHT22;9676;50.916;13.352;2023-05-07T02:43:31;13.40;56.10
19088;DHT22;9676;50.916;13.352;2023-05-07T02:46:21;13.40;56.10
19088;DHT22;9676;50.916;13.352;2023-05-07T02:49:19;13.30;56.10
19088;DHT22;9676;50.916;13.352;2023-05-07T02:52:09;13.30;55.90
19088;DHT22;9676;50.916;13.352;2023-05-07T02:54:58;13.30;55.70
19088;DHT22;9676;50.916;13.352;2023-05-07T02:57:48;13.20;56.40
19088;DHT22;9676;50.916;13.352;2023-05-07T03:00:37;13.20;55.90
19088;DHT22;9676;50.916;13.352;2023-05-07T03:03:42;13.10;56.10
19088;DHT22;9676;50.916;13.352;2023-05-07T03:06:33;13.10;56.10
19088;DHT22;9676;50.916;13.352;2023-05-07T03:09:22;13.10;55.90
19088;DHT22;9676;50.916;13.352;2023-05-07T03:12:11;13.10;55.90
19088;DHT22;9676;50.916;13.352;2023-05-07T03:15:01;13.10;56.10
19088;DHT22;9676;50.916;13.352;2023-05-07T03:17:50;13.10;55.90
19088;DHT22;9676;50.916;13.352;2023-05-07T03:20:40;13.10;55.90
19088;DHT22;9676;50.916;13.352;2023-05-07T03:23:31;13.00;56.10
19088;DHT22;9676;50.916;13.352;2023-05-07T03:26:20;13.00;55.90
19088;DHT22;9676;50.916;13.352;2023-05-07T03:29:09;13.00;56.00
19088;DHT22;9676;50.916;13.352;2023-05-07T03:31:59;13.00;56.20
19088;DHT22;9676;50.916;13.352;2023-05-07T03:34:48;13.00;56.40
19088;DHT22;9676;50.916;13.352;2023-05-07T03:37:38;13.00;56.30
19088;DHT22;9676;50.916;13.352;2023-05-07T03:40:29;13.00;56.40
19088;DHT22;9676;50.916;13.352;2023-05-07T03:43:19;13.00;56.50
19088;DHT22;9676;50.916;13.352;2023-05-07T03:46:16;13.10;56.50
19088;DHT22;9676;50.916;13.352;2023-05-07T03:49:06;13.10;56.60
19088;DHT22;9676;50.916;13.352;2023-05-07T03:51:55;13.10;56.50
19088;DHT22;9676;50.916;13.352;2023-05-07T03:54:45;13.10;56.60
19088;DHT22;9676;50.916;13.352;2023-05-07T03:57:37;13.10;56.70
19088;DHT22;9676;50.916;13.352;2023-05-07T04:00:27;13.10;56.40
19088;DHT22;9676;50.916;13.352;2023-05-07T04:03:21;13.10;56.40
19088;DHT22;9676;50.916;13.352;2023-05-07T04:06:11;13.10;56.40
19088;DHT22;9676;50.916;13.352;2023-05-07T04:09:04;13.00;56.20
19088;DHT22;9676;50.916;13.352;2023-05-07T04:11:54;12.90;56.30
19088;DHT22;9676;50.916;13.352;2023-05-07T04:14:45;12.90;56.70
19088;DHT22;9676;50.916;13.352;2023-05-07T04:17:35;12.90;57.00
19088;DHT22;9676;50.916;13.352;2023-05-07T04:20:25;12.80;57.20
19088;DHT22;9676;50.916;13.352;2023-05-07T04:23:21;12.90;57.50
19088;DHT22;9676;50.916;13.352;2023-05-07T04:26:11;12.90;57.20
19088;DHT22;9676;50.916;13.352;2023-05-07T04:29:03;12.90;57.50
19088;DHT22;9676;50.916;13.352;2023-05-07T04:31:55;12.90;57.50
19088;DHT22;9676;50.916;13.352;2023-05-07T04:34:47;13.00;57.50
19088;DHT22;9676;50.916;13.352;2023-05-07T04:37:37;13.00;57.60
19088;DHT22;9676;50.916;13.352;2023-05-07T04:40:26;13.00;57.80
19088;DHT22;9676;50.916;13.352;2023-05-07T04:43:16;13.00;57.70
19088;DHT22;9676;50.916;13.352;2023-05-07T04:46:09;13.00;57.70
19088;DHT22;9676;50.916;13.352;2023-05-07T04:49:01;13.10;57.60
19088;DHT22;9676;50.916;13.352;2023-05-07T04:51:51;13.10;57.80
19088;DHT22;9676;50.916;13.352;2023-05-07T04:54:42;13.10;57.60
19088;DHT22;9676;50.916;13.352;2023-05-07T04:57:32;13.10;57.60
19088;DHT22;9676;50.916;13.352;2023-05-07T05:00:22;13.10;57.80
19088;DHT22;9676;50.916;13.352;2023-05-07T05:03:14;13.20;57.90
19088;DHT22;9676;50.916;13.352;2023-05-07T05:06:05;13.20;57.80
19088;DHT22;9676;50.916;13.352;2023-05-07T05:08:55;13.20;57.80
19088;DHT22;9676;50.916;13.352;2023-05-07T05:11:46;13.30;57.70
19088;DHT22;9676;50.916;13.352;2023-05-07T05:14:35;13.20;57.50
19088;DHT22;9676;50.916;13.352;2023-05-07T05:17:25;13.20;57.50
19088;DHT22;9676;50.916;13.352;2023-05-07T05:20:14;13.20;57.40
19088;DHT22;9676;50.916;13.352;2023-05-07T05:23:07;13.20;57.60
19088;DHT22;9676;50.916;13.352;2023-05-07T05:25:58;13.20;57.90
19088;DHT22;9676;50.916;13.352;2023-05-07T05:28:51;13.20;58.00
19088;DHT22;9676;50.916;13.352;2023-05-07T05:31:43;13.20;57.90
19088;DHT22;9676;50.916;13.352;2023-05-07T05:34:32;13.30;57.70
19088;DHT22;9676;50.916;13.352;2023-05-07T05:37:23;13.30;57.60
19088;DHT22;9676;50.916;13.352;2023-05-07T05:40:16;13.30;57.70
19088;DHT22;9676;50.916;13.352;2023-05-07T05:43:06;13.20;57.80
19088;DHT22;9676;50.916;13.352;2023-05-07T05:45:58;13.30;57.90
19088;DHT22;9676;50.916;13.352;2023-05-07T05:48:49;13.30;57.90
19088;DHT22;9676;50.916;13.352;2023-05-07T05:51:39;13.30;58.00
19088;DHT22;9676;50.916;13.352;2023-05-07T05:54:29;13.40;58.20
19088;DHT22;9676;50.916;13.352;2023-05-07T05:57:19;13.40;58.10
19088;DHT22;9676;50.916;13.352;2023-05-07T06:00:10;13.40;58.30
19088;DHT22;9676;50.916;13.352;2023-05-07T06:03:06;13.50;58.50
19088;DHT22;9676;50.916;13.352;2023-05-07T06:05:56;13.50;58.10
19088;DHT22;9676;50.916;13.352;2023-05-07T06:08:48;13.50;58.60
19088;DHT22;9676;50.916;13.352;2023-05-07T06:11:42;13.50;58.00
19088;DHT22;9676;50.916;13.352;2023-05-07T06:14:34;13.50;58.10
19088;DHT22;9676;50.916;13.352;2023-05-07T06:17:23;13.50;58.00
19088;DHT22;9676;50.916;13.352;2023-05-07T06:20:13;13.60;58.10
19088;DHT22;9676;50.916;13.352;2023-05-07T06:23:03;13.50;58.10
19088;DHT22;9676;50.916;13.352;2023-05-07T06:25:54;13.50;58.00
19088;DHT22;9676;50.916;13.352;2023-05-07T06:28:48;13.60;58.10
19088;DHT22;9676;50.916;13.352;2023-05-07T06:31:39;13.60;58.20
19088;DHT22;9676;50.916;13.352;2023-05-07T06:34:30;13.60;58.40
19088;DHT22;9676;50.916;13.352;2023-05-07T06:37:19;13.70;58.50
19088;DHT22;9676;50.916;13.352;2023-05-07T06:40:15;13.80;58.50
19088;DHT22;9676;50.916;13.352;2023-05-07T06:43:06;13.80;58.60
19088;DHT22;9676;50.916;13.352;2023-05-07T06:46:06;13.90;58.20
19088;DHT22;9676;50.916;13.352;2023-05-07T06:48:57;13.90;58.00
19088;DHT22;9676;50.916;13.352;2023-05-07T06:51:47;13.90;58.20
19088;DHT22;9676;50.916;13.352;2023-05-07T06:54:37;14.00;58.40
19088;DHT22;9676;50.916;13.352;2023-05-07T06:57:26;14.00;58.40
19088;DHT22;9676;50.916;13.352;2023-05-07T07:00:17;14.10;58.40
19088;DHT22;9676;50.916;13.352;2023-05-07T07:03:12;14.10;58.40
19088;DHT22;9676;50.916;13.352;2023-05-07T07:06:03;14.20;58.30
19088;DHT22;9676;50.916;13.352;2023-05-07T07:08:53;14.30;58.40
19088;DHT22;9676;50.916;13.352;2023-05-07T07:11:42;14.30;58.40
19088;DHT22;9676;50.916;13.352;2023-05-07T07:14:32;14.40;58.30
19088;DHT22;9676;50.916;13.352;2023-05-07T07:17:21;14.50;58.40
19088;DHT22;9676;50.916;13.352;2023-05-07T07:20:11;14.60;58.30
19088;DHT22;9676;50.916;13.352;2023-05-07T07:23:05;14.60;58.10
19088;DHT22;9676;50.916;13.352;2023-05-07T07:25:55;14.60;58.00
19088;DHT22;9676;50.916;13.352;2023-05-07T07:28:45;14.70;58.10
19088;DHT22;9676;50.916;13.352;2023-05-07T07:31:38;14.70;57.90
19088;DHT22;9676;50.916;13.352;2023-05-07T07:34:29;14.70;57.70
19088;DHT22;9676;50.916;13.352;2023-05-07T07:37:21;14.60;57.40
19088;DHT22;9676;50.916;13.352;2023-05-07T07:40:12;14.60;57.30
19088;DHT22;9676;50.916;13.352;2023-05-07T07:43:03;14.50;57.20
19088;DHT22;9676;50.916;13.352;2023-05-07T07:45:53;14.50;57.10
19088;DHT22;9676;50.916;13.352;2023-05-07T07:48:44;14.40;56.90
19088;DHT22;9676;50.916;13.352;2023-05-07T07:51:34;14.30;56.80
19088;DHT22;9676;50.916;13.352;2023-05-07T07:54:23;14.20;56.80
19088;DHT22;9676;50.916;13.352;2023-05-07T07:57:15;14.10;56.80
19088;DHT22;9676;50.916;13.352;2023-05-07T08:00:06;14.10;57.00
19088;DHT22;9676;50.916;13.352;2023-05-07T08:03:16;14.10;57.20
19088;DHT22;9676;50.916;13.352;2023-05-07T08:06:10;14.00;57.20
19088;DHT22;9676;50.916;13.352;2023-05-07T08:09:03;14.10;57.20
19088;DHT22;9676;50.916;13.352;2023-05-07T08:11:53;14.00;57.30
19088;DHT22;9676;50.916;13.352;2023-05-07T08:14:44;14.00;57.10
19088;DHT22;9676;50.916;13.352;2023-05-07T08:17:34;14.00;57.20
19088;DHT22;9676;50.916;13.352;2023-05-07T08:20:23;14.00;57.70
19088;DHT22;9676;50.916;13.352;2023-05-07T08:23:13;14.00;57.90
19088;DHT22;9676;50.916;13.352;2023-05-07T08:26:04;14.10;58.00
19088;DHT22;9676;50.916;13.352;2023-05-07T08:28:53;14.20;57.90
19088;DHT22;9676;50.916;13.352;2023-05-07T08:31:44;14.30;57.90
19088;DHT22;9676;50.916;13.352;2023-05-07T08:34:33;14.40;57.60
19088;DHT22;9676;50.916;13.352;2023-05-07T08:37:25;14.50;57.50
19088;DHT22;9676;50.916;13.352;2023-05-07T08:40:15;14.50;57.20
19088;DHT22;9676;50.916;13.352;2023-05-07T08:43:06;14.50;57.00
19088;DHT22;9676;50.916;13.352;2023-05-07T08:46:01;14.50;56.90
19088;DHT22;9676;50.916;13.352;2023-05-07T08:48:56;14.50;56.90
19088;DHT22;9676;50.916;13.352;2023-05-07T08:51:46;14.40;56.80
19088;DHT22;9676;50.916;13.352;2023-05-07T08:54:37;14.40;56.70
19088;DHT22;9676;50.916;13.352;2023-05-07T08:57:28;14.40;56.80
19088;DHT22;9676;50.916;13.352;2023-05-07T09:00:19;14.40;56.70
19088;DHT22;9676;50.916;13.352;2023-05-07T09:03:11;14.30;56.60
19088;DHT22;9676;50.916;13.352;2023-05-07T09:06:06;14.30;56.80
19088;DHT22;9676;50.916;13.352;2023-05-07T09:08:56;14.30;57.00
19088;DHT22;9676;50.916;13.352;2023-05-07T09:11:51;14.30;57.10
19088;DHT22;9676;50.916;13.352;2023-05-07T09:14:48;14.40;57.30
19088;DHT22;9676;50.916;13.352;2023-05-07T09:17:38;14.40;57.20
19088;DHT22;9676;50.916;13.352;2023-05-07T09:20:30;14.40;57.10
19088;DHT22;9676;50.916;13.352;2023-05-07T09:23:23;14.40;56.90
19088;DHT22;9676;50.916;13.352;2023-05-07T09:26:14;14.40;56.80
19088;DHT22;9676;50.916;13.352;2023-05-07T09:29:04;14.30;56.80
19088;DHT22;9676;50.916;13.352;2023-05-07T09:31:54;14.30;56.80
19088;DHT22;9676;50.916;13.352;2023-05-07T09:34:44;14.30;56.80
19088;DHT22;9676;50.916;13.352;2023-05-07T09:37:37;14.30;57.00
19088;DHT22;9676;50.916;13.352;2023-05-07T09:40:29;14.30;57.20
19088;DHT22;9676;50.916;13.352;2023-05-07T09:43:24;14.30;57.20
19088;DHT22;9676;50.916;13.352;2023-05-07T09:46:18;14.30;57.10
19088;DHT22;9676;50.916;13.352;2023-05-07T09:49:19;14.30;57.20
19088;DHT22;9676;50.916;13.352;2023-05-07T09:52:14;14.30;57.20
19088;DHT22;9676;50.916;13.352;2023-05-07T09:55:11;14.30;57.20
19088;DHT22;9676;50.916;13.352;2023-05-07T09:58:04;14.30;57.30
19088;DHT22;9676;50.916;13.352;2023-05-07T10:00:55;14.30;57.40
19088;DHT22;9676;50.916;13.352;2023-05-07T10:03:46;14.30;57.20
19088;DHT22;9676;50.916;13.352;2023-05-07T10:06:37;14.30;57.20
19088;DHT22;9676;50.916;13.352;2023-05-07T10:09:27;14.30;57.20
19088;DHT22;9676;50.916;13.352;2023-05-07T10:12:17;14.40;57.30
19088;DHT22;9676;50.916;13.352;2023-05-07T10:15:10;14.40;57.30
19088;DHT22;9676;50.916;13.352;2023-05-07T10:18:03;14.50;57.30
19088;DHT22;9676;50.916;13.352;2023-05-07T10:20:54;14.50;57.20
19088;DHT22;9676;50.916;13.352;2023-05-07T10:23:59;14.50;57.20
19088;DHT22;9676;50.916;13.352;2023-05-07T10:26:56;14.50;57.10
19088;DHT22;9676;50.916;13.352;2023-05-07T10:29:56;14.50;57.10
19088;DHT22;9676;50.916;13.352;2023-05-07T10:32:56;14.50;57.30
19088;DHT22;9676;50.916;13.352;2023-05-07T10:35:58;14.50;57.40
19088;DHT22;9676;50.916;13.352;2023-05-07T10:38:50;14.60;57.40
19088;DHT22;9676;50.916;13.352;2023-05-07T10:41:41;14.60;57.50
19088;DHT22;9676;50.916;13.352;2023-05-07T10:44:31;14.70;57.60
19088;DHT22;9676;50.916;13.352;2023-05-07T10:47:26;14.80;57.80
19088;DHT22;9676;50.916;13.352;2023-05-07T10:50:24;14.90;57.80
19088;DHT22;9676;50.916;13.352;2023-05-07T10:53:24;15.00;57.80
19088;DHT22;9676;50.916;13.352;2023-05-07T10:56:28;15.10;57.70
19088;DHT22;9676;50.916;13.352;2023-05-07T10:59:31;15.20;57.50
19088;DHT22;9676;50.916;13.352;2023-05-07T11:03:07;15.20;57.20
19088;DHT22;9676;50.916;13.352;2023-05-07T11:06:12;15.30;57.30
19088;DHT22;9676;50.916;13.352;2023-05-07T11:09:16;15.30;57.50
19088;DHT22;9676;50.916;13.352;2023-05-07T11:12:16;15.40;57.80
19088;DHT22;9676;50.916;13.352;2023-05-07T11:15:13;15.50;57.80
19088;DHT22;9676;50.916;13.352;2023-05-07T11:18:04;15.60;57.70
19088;DHT22;9676;50.916;13.352;2023-05-07T11:20:59;15.70;57.50
19088;DHT22;9676;50.916;13.352;2023-05-07T11:24:10;15.80;57.40
19088;DHT22;9676;50.916;13.352;2023-05-07T11:27:13;15.80;57.30
19088;DHT22;9676;50.916;13.352;2023-05-07T11:30:03;15.90;57.40
19088;DHT22;9676;50.916;13.352;2023-05-07T11:32:53;15.90;57.20
19088;DHT22;9676;50.916;13.352;2023-05-07T11:35:44;16.00;57.30
19088;DHT22;9676;50.916;13.352;2023-05-07T11:38:37;16.00;57.30
19088;DHT22;9676;50.916;13.352;2023-05-07T11:41:35;16.10;57.20
19088;DHT22;9676;50.916;13.352;2023-05-07T11:44:25;16.10;57.20
19088;DHT22;9676;50.916;13.352;2023-05-07T11:47:31;16.20;57.20
19088;DHT22;9676;50.916;13.352;2023-05-07T11:50:22;16.20;56.90
19088;DHT22;9676;50.916;13.352;2023-05-07T11:53:12;16.20;56.70
19088;DHT22;9676;50.916;13.352;2023-05-07T11:56:06;16.30;56.60
19088;DHT22;9676;50.916;13.352;2023-05-07T11:58:57;16.30;56.60
19088;DHT22;9676;50.916;13.352;2023-05-07T12:01:47;16.30;56.60
19088;DHT22;9676;50.916;13.352;2023-05-07T12:04:38;16.30;56.50
19088;DHT22;9676;50.916;13.352;2023-05-07T12:07:27;16.30;56.40
19088;DHT22;9676;50.916;13.352;2023-05-07T12:10:17;16.30;56.20
19088;DHT22;9676;50.916;13.352;2023-05-07T12:13:14;16.30;56.20
19088;DHT22;9676;50.916;13.352;2023-05-07T12:16:06;16.20;56.20
19088;DHT22;9676;50.916;13.352;2023-05-07T12:18:56;16.30;56.50
19088;DHT22;9676;50.916;13.352;2023-05-07T12:21:47;16.30;56.50
19088;DHT22;9676;50.916;13.352;2023-05-07T12:24:47;16.40;56.50
19088;DHT22;9676;50.916;13.352;2023-05-07T12:27:40;16.40;56.30
19088;DHT22;9676;50.916;13.352;2023-05-07T12:30:29;16.50;56.30
19088;DHT22;9676;50.916;13.352;2023-05-07T12:33:24;16.50;56.50
19088;DHT22;9676;50.916;13.352;2023-05-07T12:36:15;16.50;56.80
19088;DHT22;9676;50.916;13.352;2023-05-07T12:39:05;16.70;57.30
19088;DHT22;9676;50.916;13.352;2023-05-07T12:41:57;16.90;57.40
19088;DHT22;9676;50.916;13.352;2023-05-07T12:44:47;17.10;57.40
19088;DHT22;9676;50.916;13.352;2023-05-07T12:47:37;17.20;57.30
19088;DHT22;9676;50.916;13.352;2023-05-07T12:50:31;17.40;57.30
19088;DHT22;9676;50.916;13.352;2023-05-07T12:53:22;17.50;57.40
19088;DHT22;9676;50.916;13.352;2023-05-07T12:56:15;17.70;57.50
19088;DHT22;9676;50.916;13.352;2023-05-07T12:59:05;17.80;57.10
19088;DHT22;9676;50.916;13.352;2023-05-07T13:01:54;17.90;57.00
19088;DHT22;9676;50.916;13.352;2023-05-07T13:04:43;18.00;56.60
19088;DHT22;9676;50.916;13.352;2023-05-07T13:07:34;18.10;56.40
19088;DHT22;9676;50.916;13.352;2023-05-07T13:10:25;18.20;56.50
19088;DHT22;9676;50.916;13.352;2023-05-07T13:13:14;18.20;56.10
19088;DHT22;9676;50.916;13.352;2023-05-07T13:16:05;18.30;56.20
19088;DHT22;9676;50.916;13.352;2023-05-07T13:18:56;18.30;55.60
19088;DHT22;9676;50.916;13.352;2023-05-07T13:21:46;18.30;55.10
19088;DHT22;9676;50.916;13.352;2023-05-07T13:24:36;18.30;55.00
19088;DHT22;9676;50.916;13.352;2023-05-07T13:27:26;18.20;54.60
19088;DHT22;9676;50.916;13.352;2023-05-07T13:30:15;18.10;54.70
19088;DHT22;9676;50.916;13.352;2023-05-07T13:33:05;18.00;54.70
19088;DHT22;9676;50.916;13.352;2023-05-07T13:35:54;17.90;54.60
19088;DHT22;9676;50.916;13.352;2023-05-07T13:38:45;17.80;54.50
19088;DHT22;9676;50.916;13.352;2023-05-07T13:41:36;17.80;54.60
19088;DHT22;9676;50.916;13.352;2023-05-07T13:44:26;17.70;54.90
19088;DHT22;9676;50.916;13.352;2023-05-07T13:47:15;17.70;55.20
19088;DHT22;9676;50.916;13.352;2023-05-07T13:50:06;17.70;55.20
19088;DHT22;9676;50.916;13.352;2023-05-07T13:52:57;17.70;55.30
19088;DHT22;9676;50.916;13.352;2023-05-07T13:55:46;17.80;56.10
19088;DHT22;9676;50.916;13.352;2023-05-07T13:58:37;17.80;55.60
19088;DHT22;9676;50.916;13.352;2023-05-07T14:01:43;17.80;55.50
19088;DHT22;9676;50.916;13.352;2023-05-07T14:04:33;17.90;55.30
19088;DHT22;9676;50.916;13.352;2023-05-07T14:07:22;17.90;55.30
19088;DHT22;9676;50.916;13.352;2023-05-07T14:10:12;18.00;55.40
19088;DHT22;9676;50.916;13.352;2023-05-07T14:13:02;18.00;55.80
19088;DHT22;9676;50.916;13.352;2023-05-07T14:15:52;18.00;55.30
19088;DHT22;9676;50.916;13.352;2023-05-07T14:18:42;18.00;55.50
19088;DHT22;9676;50.916;13.352;2023-05-07T14:21:32;18.10;55.60
19088;DHT22;9676;50.916;13.352;2023-05-07T14:24:22;18.10;55.40
19088;DHT22;9676;50.916;13.352;2023-05-07T14:27:25;18.20;55.50
19088;DHT22;9676;50.916;13.352;2023-05-07T14:30:15;18.20;55.40
19088;DHT22;9676;50.916;13.352;2023-05-07T14:33:06;18.20;55.30
19088;DHT22;9676;50.916;13.352;2023-05-07T14:35:55;18.20;55.10
19088;DHT22;9676;50.916;13.352;2023-05-07T14:38:45;18.20;55.00
19088;DHT22;9676;50.916;13.352;2023-05-07T14:41:34;18.20;54.80
19088;DHT22;9676;50.916;13.352;2023-05-07T14:44:24;18.10;54.70
19088;DHT22;9676;50.916;13.352;2023-05-07T14:47:13;18.10;54.70
19088;DHT22;9676;50.916;13.352;2023-05-07T14:50:08;18.10;54.60
19088;DHT22;9676;50.916;13.352;2023-05-07T14:52:58;18.00;54.50
19088;DHT22;9676;50.916;13.352;2023-05-07T14:55:48;17.80;54.30
19088;DHT22;9676;50.916;13.352;2023-05-07T14:58:37;17.70;54.10
19088;DHT22;9676;50.916;13.352;2023-05-07T15:01:27;17.60;54.20
19088;DHT22;9676;50.916;13.352;2023-05-07T15:04:16;17.50;54.40
19088;DHT22;9676;50.916;13.352;2023-05-07T15:07:07;17.40;54.50
19088;DHT22;9676;50.916;13.352;2023-05-07T15:09:57;17.40;54.70
19088;DHT22;9676;50.916;13.352;2023-05-07T15:12:46;17.30;54.70
19088;DHT22;9676;50.916;13.352;2023-05-07T15:15:36;17.30;54.70
19088;DHT22;9676;50.916;13.352;2023-05-07T15:18:25;17.20;54.50
19088;DHT22;9676;50.916;13.352;2023-05-07T15:21:14;17.20;54.60
19088;DHT22;9676;50.916;13.352;2023-05-07T15:24:07;17.10;54.60
19088;DHT22;9676;50.916;13.352;2023-05-07T15:26:57;17.10;54.60
19088;DHT22;9676;50.916;13.352;2023-05-07T15:29:47;17.00;54.60
19088;DHT22;9676;50.916;13.352;2023-05-07T15:32:36;17.00;54.70
19088;DHT22;9676;50.916;13.352;2023-05-07T15:35:26;16.90;54.70
19088;DHT22;9676;50.916;13.352;2023-05-07T15:38:15;16.90;54.80
19088;DHT22;9676;50.916;13.352;2023-05-07T15:41:06;16.90;54.70
19088;DHT22;9676;50.916;13.352;2023-05-07T15:43:57;16.80;54.70
19088;DHT22;9676;50.916;13.352;2023-05-07T15:46:46;16.80;54.90
19088;DHT22;9676;50.916;13.352;2023-05-07T15:49:35;16.80;55.50
19088;DHT22;9676;50.916;13.352;2023-05-07T15:52:25;16.70;54.90
19088;DHT22;9676;50.916;13.352;2023-05-07T15:55:16;16.70;54.80
19088;DHT22;9676;50.916;13.352;2023-05-07T15:58:06;16.70;54.80
19088;DHT22;9676;50.916;13.352;2023-05-07T16:00:56;16.70;54.80
19088;DHT22;9676;50.916;13.352;2023-05-07T16:03:45;16.60;54.70
19088;DHT22;9676;50.916;13.352;2023-05-07T16:06:35;16.60;54.60
19088;DHT22;9676;50.916;13.352;2023-05-07T16:09:24;16.50;54.60
19088;DHT22;9676;50.916;13.352;2023-05-07T16:12:16;16.50;54.60
19088;DHT22;9676;50.916;13.352;2023-05-07T16:15:07;16.40;54.50
19088;DHT22;9676;50.916;13.352;2023-05-07T16:17:58;16.40;54.70
19088;DHT22;9676;50.916;13.352;2023-05-07T16:20:47;16.30;54.60
19088;DHT22;9676;50.916;13.352;2023-05-07T16:23:37;16.30;54.60
19088;DHT22;9676;50.916;13.352;2023-05-07T16:26:26;16.20;54.60
19088;DHT22;9676;50.916;13.352;2023-05-07T16:29:16;16.20;54.50
19088;DHT22;9676;50.916;13.352;2023-05-07T16:32:08;16.10;54.70
19088;DHT22;9676;50.916;13.352;2023-05-07T16:34:58;16.10;54.80
19088;DHT22;9676;50.916;13.352;2023-05-07T16:37:47;15.90;54.70
19088;DHT22;9676;50.916;13.352;2023-05-07T16:40:37;15.90;54.80
19088;DHT22;9676;50.916;13.352;2023-05-07T16:43:27;15.80;54.90
19088;DHT22;9676;50.916;13.352;2023-05-07T16:46:16;15.80;55.00
19088;DHT22;9676;50.916;13.352;2023-05-07T16:49:07;15.70;54.90
19088;DHT22;9676;50.916;13.352;2023-05-07T16:51:56;15.60;54.80
19088;DHT22;9676;50.916;13.352;2023-05-07T16:54:46;15.50;54.80
19088;DHT22;9676;50.916;13.352;2023-05-07T16:57:35;15.50;55.00
19088;DHT22;9676;50.916;13.352;2023-05-07T17:00:25;15.40;55.10
19088;DHT22;9676;50.916;13.352;2023-05-07T17:03:29;15.30;55.00
19088;DHT22;9676;50.916;13.352;2023-05-07T17:06:20;15.30;55.20
19088;DHT22;9676;50.916;13.352;2023-05-07T17:09:09;15.20;55.20
19088;DHT22;9676;50.916;13.352;2023-05-07T17:11:59;15.20;55.20
19088;DHT22;9676;50.916;13.352;2023-05-07T17:14:49;15.10;55.10
19088;DHT22;9676;50.916;13.352;2023-05-07T17:17:39;15.10;55.40
19088;DHT22;9676;50.916;13.352;2023-05-07T17:20:28;15.00;55.10
19088;DHT22;9676;50.916;13.352;2023-05-07T17:23:19;14.90;55.00
19088;DHT22;9676;50.916;13.352;2023-05-07T17:26:12;14.90;55.10
19088;DHT22;9676;50.916;13.352;2023-05-07T17:29:02;14.90;55.20
19088;DHT22;9676;50.916;13.352;2023-05-07T17:31:51;14.80;55.00
19088;DHT22;9676;50.916;13.352;2023-05-07T17:34:41;14.80;55.10
19088;DHT22;9676;50.916;13.352;2023-05-07T17:37:30;14.70;55.10
19088;DHT22;9676;50.916;13.352;2023-05-07T17:40:21;14.60;54.90
19088;DHT22;9676;50.916;13.352;2023-05-07T17:43:10;14.60;55.00
19088;DHT22;9676;50.916;13.352;2023-05-07T17:46:00;14.50;54.90
19088;DHT22;9676;50.916;13.352;2023-05-07T17:48:50;14.40;54.90
19088;DHT22;9676;50.916;13.352;2023-05-07T17:51:39;14.30;55.00
19088;DHT22;9676;50.916;13.352;2023-05-07T17:54:41;14.30;55.10
19088;DHT22;9676;50.916;13.352;2023-05-07T17:57:32;14.20;55.00
19088;DHT22;9676;50.916;13.352;2023-05-07T18:00:22;14.10;55.30
19088;DHT22;9676;50.916;13.352;2023-05-07T18:03:11;14.00;55.10